Time;durP1;ratioP1;P1;durP2;ratioP2;P2;SDS_P1;SDS_P2;PMS_P1;PMS_P2;Temp;Humidity;BMP_temperature;BMP_pressure;BME280_temperature;BME280_humidity;BME280_pressure;Samples;Min_cycle;Max_cycle;Signal;HPM_P1;HPM_P2
2022/11/18 00:01:44;;;;;;;6.53;1.70;;;16.80;93.60;;;;;;5052874;28;20043;-77
2022/11/18 00:04:10;;;;;;;3.58;1.35;;;16.80;93.40;;;;;;5053098;28;20032;-76
2022/11/18 00:06:36;;;;;;;2.95;1.35;;;16.80;93.80;;;;;;5052733;28;20055;-77
2022/11/18 00:09:02;;;;;;;2.72;1.27;;;16.80;93.60;;;;;;5053195;28;20099;-77
2022/11/18 00:14:19;;;;;;;3.10;1.50;;;16.80;93.60;;;;;;5053069;28;20043;-72
2022/11/18 00:16:59;;;;;;;4.68;1.75;;;16.80;93.60;;;;;;5052654;28;20033;-74
2022/11/18 00:19:33;;;;;;;3.70;1.50;;;16.80;93.40;;;;;;5053447;28;20032;-72
2022/11/18 00:22:00;;;;;;;3.00;1.10;;;16.80;93.80;;;;;;5052635;28;20025;-72
2022/11/18 00:24:26;;;;;;;3.90;1.20;;;16.80;93.50;;;;;;5053019;28;20017;-72
2022/11/18 00:26:52;;;;;;;3.55;1.30;;;16.70;93.80;;;;;;5052785;28;20044;-74
2022/11/18 00:29:18;;;;;;;2.58;1.50;;;16.70;93.90;;;;;;5051268;28;20036;-72
2022/11/18 00:31:43;;;;;;;5.38;1.60;;;16.70;93.70;;;;;;5052648;28;20028;-73
2022/11/18 00:34:14;;;;;;;6.97;1.67;;;16.70;93.70;;;;;;5052651;28;20421;-73
2022/11/18 00:36:41;;;;;;;3.92;1.33;;;16.70;93.60;;;;;;5052496;28;20486;-72
2022/11/18 00:39:06;;;;;;;4.05;1.17;;;16.70;93.60;;;;;;5052814;28;20017;-73
2022/11/18 00:44:16;;;;;;;4.00;1.30;;;16.70;93.80;;;;;;5052605;28;20584;-72
2022/11/18 00:46:42;;;;;;;5.03;1.40;;;16.70;93.70;;;;;;5052640;28;20044;-72
2022/11/18 00:49:08;;;;;;;4.53;1.52;;;16.70;93.60;;;;;;5052697;28;20028;-72
2022/11/18 00:51:34;;;;;;;2.65;1.30;;;16.70;93.80;;;;;;5052539;28;20095;-72
2022/11/18 00:54:00;;;;;;;5.63;1.65;;;16.60;93.60;;;;;;5052610;28;20466;-72
2022/11/18 00:56:25;;;;;;;3.05;1.17;;;16.70;93.70;;;;;;5052119;28;20022;-73
2022/11/18 00:58:51;;;;;;;5.38;1.60;;;16.60;93.70;;;;;;5052660;28;20033;-73
2022/11/18 01:01:16;;;;;;;3.65;1.35;;;16.60;93.60;;;;;;5052593;28;20051;-72
2022/11/18 01:03:42;;;;;;;3.88;1.30;;;16.60;93.60;;;;;;5052050;28;20120;-72
2022/11/18 01:06:08;;;;;;;3.88;1.45;;;16.60;93.80;;;;;;5052525;28;20055;-72
2022/11/18 01:08:33;;;;;;;4.50;1.20;;;16.60;93.70;;;;;;5052337;28;20029;-72
2022/11/18 01:13:18;;;;;;;3.72;1.48;;;16.60;94.00;;;;;;5052308;28;20481;-72
2022/11/18 01:13:47;;;;;;;3.45;1.58;;;16.60;93.60;;;;;;5052262;28;20048;-72
2022/11/18 01:16:24;;;;;;;3.63;1.42;;;16.50;93.70;;;;;;5052295;28;20036;-72
2022/11/18 01:18:50;;;;;;;3.58;1.33;;;16.50;93.90;;;;;;5054811;28;20037;-72
2022/11/18 01:21:16;;;;;;;3.33;1.35;;;16.50;93.80;;;;;;5054887;28;20104;-73
2022/11/18 01:23:42;;;;;;;5.00;1.48;;;16.50;94.00;;;;;;5055850;28;20491;-72
2022/11/18 01:26:10;;;;;;;3.13;1.15;;;16.50;93.80;;;;;;5055839;28;20017;-73
2022/11/18 01:28:36;;;;;;;2.92;1.45;;;16.50;94.00;;;;;;5055804;28;20029;-72
2022/11/18 01:31:07;;;;;;;4.72;1.10;;;16.50;93.90;;;;;;5056216;28;20070;-72
2022/11/18 01:33:33;;;;;;;3.00;1.27;;;16.40;93.70;;;;;;5055873;28;20054;-72
2022/11/18 01:35:58;;;;;;;3.40;1.20;;;16.50;93.80;;;;;;5055843;28;20029;-72
2022/11/18 01:38:24;;;;;;;4.25;1.17;;;16.40;94.10;;;;;;5055820;28;20128;-72
2022/11/18 01:40:50;;;;;;;3.58;1.10;;;16.40;93.90;;;;;;5055627;28;20413;-73
2022/11/18 01:43:18;;;;;;;4.30;1.13;;;16.50;93.80;;;;;;5055540;28;20032;-72
2022/11/18 01:45:46;;;;;;;3.35;0.98;;;16.40;94.00;;;;;;5055898;28;20021;-72
2022/11/18 01:48:21;;;;;;;5.18;1.30;;;16.40;93.90;;;;;;5055496;28;20029;-72
2022/11/18 01:51:03;;;;;;;2.22;1.30;;;16.40;93.80;;;;;;5054513;28;20033;-76
2022/11/18 01:53:33;;;;;;;;;;;16.40;93.70;;;;;;5056260;28;20036;-76
2022/11/18 01:56:04;;;;;;;4.35;1.15;;;16.50;93.30;;;;;;5057659;28;20332;-73
2022/11/18 01:58:31;;;;;;;3.08;1.10;;;16.40;93.60;;;;;;5055580;28;20021;-77
2022/11/18 02:00:58;;;;;;;2.13;1.02;;;16.40;93.70;;;;;;5055400;28;20378;-77
2022/11/18 02:03:25;;;;;;;3.00;1.23;;;16.30;93.80;;;;;;5054808;28;20033;-77
2022/11/18 02:05:52;;;;;;;2.58;1.00;;;16.30;93.70;;;;;;5055447;28;20025;-77
2022/11/18 02:08:19;;;;;;;3.15;1.30;;;16.30;93.90;;;;;;5055297;28;20053;-74
2022/11/18 02:10:45;;;;;;;8.32;1.20;;;16.20;93.80;;;;;;5054900;28;20074;-75
2022/11/18 02:13:11;;;;;;;2.00;1.20;;;16.20;93.90;;;;;;5054985;28;20025;-73
2022/11/18 02:15:58;;;;;;;4.82;1.13;;;16.20;93.90;;;;;;5055067;28;20031;-72
2022/11/18 02:18:36;;;;;;;3.78;1.17;;;16.20;93.70;;;;;;5054792;28;20036;-73
2022/11/18 02:21:20;;;;;;;3.08;1.13;;;16.20;93.90;;;;;;5055028;28;20021;-74
2022/11/18 02:24:19;;;;;;;1.83;1.25;;;16.10;93.90;;;;;;5054520;28;20021;-75
2022/11/18 02:27:14;;;;;;;3.60;1.55;;;16.10;93.80;;;;;;5054916;28;20484;-76
2022/11/18 02:30:03;;;;;;;4.40;1.33;;;16.10;93.80;;;;;;5054577;28;20048;-73
2022/11/18 02:32:33;;;;;;;2.22;1.08;;;16.10;93.80;;;;;;5053277;28;20021;-73
2022/11/18 02:35:08;;;;;;;3.22;1.17;;;16.10;93.90;;;;;;5054621;28;20036;-73
2022/11/18 02:38:06;;;;;;;1.90;1.10;;;16.10;94.00;;;;;;5054471;28;20033;-73
2022/11/18 02:40:35;;;;;;;3.40;1.05;;;16.10;94.00;;;;;;5041744;28;20044;-73
2022/11/18 02:43:07;;;;;;;2.95;1.08;;;16.10;94.20;;;;;;5054649;28;20017;-76
2022/11/18 02:45:35;;;;;;;2.78;0.80;;;16.10;94.10;;;;;;5054312;28;20032;-72
2022/11/18 02:48:06;;;;;;;2.33;1.10;;;16.10;94.20;;;;;;5054508;28;20382;-76
2022/11/18 02:50:34;;;;;;;2.47;1.10;;;16.10;94.10;;;;;;5054375;28;20024;-74
2022/11/18 02:53:03;;;;;;;2.55;0.95;;;16.10;93.90;;;;;;5054213;28;20025;-72
2022/11/18 02:55:32;;;;;;;3.15;1.10;;;16.10;93.90;;;;;;5054143;28;20094;-77
2022/11/18 02:57:59;;;;;;;3.05;1.33;;;16.00;94.00;;;;;;5054037;28;20029;-76
2022/11/18 03:00:24;;;;;;;3.35;1.02;;;16.10;94.00;;;;;;5054180;28;20096;-74
2022/11/18 03:02:50;;;;;;;2.55;0.98;;;16.00;94.10;;;;;;5054037;28;20083;-76
2022/11/18 03:05:37;;;;;;;6.88;1.40;;;16.00;93.90;;;;;;5054113;28;20032;-73
2022/11/18 03:08:14;;;;;;;2.38;1.15;;;16.00;93.90;;;;;;5053883;28;20036;-77
2022/11/18 03:11:02;;;;;;;4.22;1.48;;;15.90;94.00;;;;;;5053799;28;20048;-75
2022/11/18 03:13:42;;;;;;;1.90;0.90;;;15.90;94.10;;;;;;5053982;28;20021;-77
2022/11/18 03:16:15;;;;;;;3.80;1.20;;;15.90;94.00;;;;;;5053738;28;20021;-77
2022/11/18 03:18:46;;;;;;;1.58;1.00;;;15.90;94.10;;;;;;5053803;28;20056;-74
2022/11/18 03:21:26;;;;;;;2.55;1.05;;;15.90;94.00;;;;;;5053383;28;20021;-76
2022/11/18 03:24:00;;;;;;;3.50;1.30;;;15.90;94.10;;;;;;5053888;28;20021;-77
2022/11/18 03:26:31;;;;;;;4.68;1.38;;;15.90;94.10;;;;;;5053651;28;20021;-77
2022/11/18 03:28:59;;;;;;;2.92;1.27;;;15.90;94.10;;;;;;5054147;28;20025;-77
2022/11/18 03:31:31;;;;;;;4.63;1.38;;;15.90;94.00;;;;;;5053622;28;20033;-76
2022/11/18 03:34:12;;;;;;;3.90;1.10;;;15.80;94.00;;;;;;5053407;28;20445;-77
2022/11/18 03:36:41;;;;;;;1.92;1.08;;;15.80;94.20;;;;;;5053137;28;20516;-76
2022/11/18 03:39:11;;;;;;;6.05;1.40;;;15.80;94.20;;;;;;5052239;28;20048;-77
2022/11/18 03:41:43;;;;;;;4.15;1.00;;;15.90;94.20;;;;;;5052874;28;20100;-78
2022/11/18 03:44:15;;;;;;;;;;;15.80;94.20;;;;;;5053816;28;20025;-73
2022/11/18 03:46:45;;;;;;;3.50;1.10;;;15.90;93.90;;;;;;5053367;28;19951;-77
2022/11/18 03:49:33;;;;;;;5.25;1.40;;;15.80;94.10;;;;;;5053520;28;20013;-76
2022/11/18 03:52:09;;;;;;;4.20;1.10;;;15.80;94.20;;;;;;5052468;28;20045;-76
2022/11/18 03:54:38;;;;;;;1.15;0.85;;;15.80;94.20;;;;;;5053267;28;20048;-77
2022/11/18 03:57:11;;;;;;;2.30;1.05;;;15.80;94.30;;;;;;5053190;28;20037;-76
2022/11/18 04:00:01;;;;;;;2.95;1.27;;;15.80;94.50;;;;;;5053146;28;20542;-77
2022/11/18 04:02:28;;;;;;;2.88;1.25;;;15.80;94.30;;;;;;5052746;28;20036;-77
2022/11/18 04:04:56;;;;;;;4.20;1.20;;;15.80;94.20;;;;;;5052761;28;20033;-77
2022/11/18 04:07:24;;;;;;;4.25;1.52;;;15.80;94.30;;;;;;5053100;28;20029;-73
2022/11/18 04:10:12;;;;;;;4.82;0.95;;;15.80;94.20;;;;;;5051763;28;20032;-72
2022/11/18 04:12:49;;;;;;;4.60;1.30;;;15.80;94.30;;;;;;5052910;28;20064;-71
2022/11/18 04:15:15;;;;;;;3.50;1.42;;;15.80;94.10;;;;;;5053269;28;20488;-72
2022/11/18 04:17:42;;;;;;;4.53;1.02;;;15.80;94.10;;;;;;5052826;28;20120;-73
2022/11/18 04:20:15;;;;;;;3.35;1.27;;;15.80;94.10;;;;;;5052582;28;20482;-72
2022/11/18 04:22:41;;;;;;;3.00;1.27;;;15.80;94.30;;;;;;5052887;28;20053;-72
2022/11/18 04:25:07;;;;;;;3.47;0.90;;;15.80;94.40;;;;;;5052861;28;20059;-73
2022/11/18 04:27:32;;;;;;;3.65;1.33;;;15.80;94.50;;;;;;5051600;28;20127;-73
2022/11/18 04:29:58;;;;;;;4.22;1.30;;;15.80;94.20;;;;;;5052708;28;20022;-72
2022/11/18 04:32:23;;;;;;;3.35;1.10;;;15.80;94.20;;;;;;5052588;28;20025;-72
2022/11/18 04:34:49;;;;;;;2.88;0.95;;;15.80;94.10;;;;;;5052391;28;20025;-73
2022/11/18 04:37:14;;;;;;;3.85;1.20;;;15.80;94.10;;;;;;5052023;28;20036;-72
2022/11/18 04:39:40;;;;;;;2.13;1.00;;;15.80;94.30;;;;;;5052784;28;20025;-73
2022/11/18 04:42:05;;;;;;;2.88;1.30;;;15.70;94.50;;;;;;5052638;28;20053;-73
2022/11/18 04:44:32;;;;;;;2.47;0.90;;;15.70;94.50;;;;;;5045310;28;20056;-72
2022/11/18 04:47:00;;;;;;;4.88;1.33;;;15.70;94.20;;;;;;5045747;28;20036;-71
2022/11/18 04:49:27;;;;;;;4.43;1.08;;;15.80;94.30;;;;;;5051784;28;20047;-72
2022/11/18 04:51:54;;;;;;;2.17;1.23;;;15.80;94.10;;;;;;5049870;28;20021;-73
2022/11/18 04:54:20;;;;;;;2.35;0.80;;;15.70;94.40;;;;;;5055478;28;20100;-72
2022/11/18 04:56:46;;;;;;;4.22;1.40;;;15.70;94.30;;;;;;5056254;28;20044;-72
2022/11/18 04:59:13;;;;;;;2.47;0.90;;;15.70;94.20;;;;;;5056361;28;20035;-72
2022/11/18 05:01:39;;;;;;;3.50;1.00;;;15.80;94.20;;;;;;5056312;28;20022;-71
2022/11/18 05:04:05;;;;;;;2.55;1.17;;;15.80;94.30;;;;;;5056351;28;20029;-72
2022/11/18 05:06:33;;;;;;;3.55;1.05;;;15.70;94.20;;;;;;5056510;28;20070;-72
2022/11/18 05:08:59;;;;;;;3.25;1.17;;;15.70;94.20;;;;;;5056557;28;20104;-72
2022/11/18 05:14:10;;;;;;;4.47;1.15;;;15.70;94.60;;;;;;5056946;28;20421;-72
2022/11/18 05:16:36;;;;;;;4.43;1.40;;;15.70;94.10;;;;;;5058075;28;20025;-71
2022/11/18 05:19:04;;;;;;;3.97;1.30;;;15.70;94.50;;;;;;5056549;28;20033;-73
2022/11/18 05:21:30;;;;;;;3.38;1.45;;;15.70;94.20;;;;;;5056032;28;20032;-72
2022/11/18 05:23:57;;;;;;;3.28;1.15;;;15.70;94.40;;;;;;5055822;28;20029;-76
2022/11/18 05:26:22;;;;;;;4.22;1.45;;;15.70;94.70;;;;;;5052004;28;20025;-77
2022/11/18 05:28:48;;;;;;;2.63;1.10;;;15.70;94.40;;;;;;5055732;28;20021;-78
2022/11/18 05:31:15;;;;;;;4.65;1.20;;;15.70;94.90;;;;;;5055769;28;20032;-77
2022/11/18 05:33:42;;;;;;;2.13;0.98;;;15.70;94.60;;;;;;5055513;28;20108;-78
2022/11/18 05:36:10;;;;;;;2.45;1.05;;;15.70;94.40;;;;;;5055953;28;20029;-75
2022/11/18 05:38:36;;;;;;;3.75;1.42;;;15.70;94.30;;;;;;5055636;28;20105;-75
2022/11/18 05:41:02;;;;;;;3.08;0.90;;;15.70;94.40;;;;;;5050485;28;20059;-78
2022/11/18 05:43:29;;;;;;;3.10;1.23;;;15.60;94.30;;;;;;5039727;28;20033;-78
2022/11/18 05:45:54;;;;;;;2.88;1.23;;;15.70;94.50;;;;;;5055740;28;20048;-78
2022/11/18 05:48:20;;;;;;;2.75;1.55;;;15.70;94.30;;;;;;5055408;28;20063;-78
2022/11/18 05:50:51;;;;;;;2.40;1.00;;;15.70;94.40;;;;;;5055474;28;20074;-78
2022/11/18 05:53:18;;;;;;;3.08;1.25;;;15.70;94.60;;;;;;5056305;28;20113;-78
2022/11/18 05:55:58;;;;;;;4.47;1.50;;;15.60;94.30;;;;;;5075112;28;20107;-77
2022/11/18 05:58:23;;;;;;;4.10;1.45;;;15.70;94.40;;;;;;5055351;28;20033;-78
2022/11/18 06:00:53;;;;;;;2.55;1.05;;;15.70;94.20;;;;;;5053404;28;20024;-77
2022/11/18 06:03:23;;;;;;;2.35;0.98;;;15.60;94.40;;;;;;5055282;28;20021;-75
2022/11/18 06:05:52;;;;;;;5.28;1.83;;;15.60;94.50;;;;;;5055008;28;20081;-74
2022/11/18 06:08:19;;;;;;;5.50;1.95;;;15.30;92.70;;;;;;5050635;28;20031;-78
2022/11/18 06:10:46;;;;;;;8.68;2.30;;;13.80;94.70;;;;;;5054988;28;20040;-76
2022/11/18 06:13:18;;;;;;;5.53;2.30;;;13.10;95.50;;;;;;5058419;28;20466;-75
2022/11/18 06:15:44;;;;;;;9.18;2.25;;;12.50;96.80;;;;;;5059646;28;20031;-74
2022/11/18 06:18:22;;;;;;;5.72;2.85;;;12.50;97.50;;;;;;5053479;28;20453;-78
2022/11/18 06:20:49;;;;;;;7.47;2.20;;;12.20;97.70;;;;;;5056069;28;20036;-77
2022/11/18 06:23:14;;;;;;;10.23;2.75;;;12.20;98.20;;;;;;5047308;28;20461;-74
2022/11/18 06:25:41;;;;;;;9.90;2.67;;;12.20;98.20;;;;;;5042039;28;20029;-76
2022/11/18 06:28:09;;;;;;;4.88;1.40;;;12.10;98.20;;;;;;5044617;28;20532;-74
2022/11/18 06:30:34;;;;;;;10.05;3.15;;;12.50;98.90;;;;;;5049775;28;20032;-78
2022/11/18 06:33:00;;;;;;;12.20;3.53;;;12.70;97.90;;;;;;5040119;28;20493;-78
2022/11/18 06:35:25;;;;;;;8.27;2.92;;;12.40;98.10;;;;;;5056936;28;20029;-74
2022/11/18 06:37:51;;;;;;;6.05;2.50;;;12.10;97.90;;;;;;5043984;28;20051;-76
2022/11/18 06:40:16;;;;;;;9.25;2.78;;;12.00;99.30;;;;;;5056848;28;20032;-78
2022/11/18 06:43:42;;;;;;;8.77;2.85;;;11.80;98.70;;;;;;5051984;28;20039;-77
2022/11/18 06:45:37;;;;;;;4.00;0.98;;;11.20;99.90;;;;;;5035772;28;20025;-78
2022/11/18 06:48:03;;;;;;;3.55;1.13;;;12.10;99.90;;;;;;5045085;28;20023;-75
2022/11/18 06:50:29;;;;;;;3.38;1.10;;;13.20;99.90;;;;;;5052438;28;20462;-74
2022/11/18 06:52:58;;;;;;;7.13;1.38;;;13.70;99.20;;;;;;5053580;28;20382;-74
2022/11/18 06:55:23;;;;;;;6.90;1.48;;;14.00;98.40;;;;;;5054847;28;20025;-73
2022/11/18 06:57:49;;;;;;;5.65;1.48;;;14.30;97.60;;;;;;5050987;28;20037;-75
2022/11/18 07:00:15;;;;;;;5.35;1.50;;;14.50;97.10;;;;;;5051644;28;20020;-74
2022/11/18 07:02:41;;;;;;;6.57;1.52;;;14.70;96.90;;;;;;5046394;28;20033;-74
2022/11/18 07:05:07;;;;;;;6.50;1.33;;;14.70;96.60;;;;;;5051290;28;20509;-76
2022/11/18 07:07:35;;;;;;;15.90;2.47;;;14.80;96.20;;;;;;5047764;28;20064;-73
2022/11/18 07:10:01;;;;;;;7.85;2.08;;;14.80;96.20;;;;;;5045435;28;20509;-76
2022/11/18 07:12:26;;;;;;;13.50;3.47;;;14.90;96.20;;;;;;5056469;28;20033;-70
2022/11/18 07:14:52;;;;;;;11.35;2.80;;;14.70;96.00;;;;;;5051707;28;20473;-72
2022/11/18 07:17:17;;;;;;;9.35;3.20;;;14.80;96.10;;;;;;5050614;28;20481;-75
2022/11/18 07:19:43;;;;;;;6.82;2.80;;;14.90;95.70;;;;;;5052496;28;20029;-74
2022/11/18 07:22:08;;;;;;;8.45;3.33;;;14.90;95.40;;;;;;5049408;28;20024;-74
2022/11/18 07:24:34;;;;;;;9.10;2.50;;;15.10;95.10;;;;;;5050964;28;20020;-74
2022/11/18 07:26:59;;;;;;;7.85;3.20;;;15.10;95.00;;;;;;5044689;28;20048;-73
2022/11/18 07:29:25;;;;;;;26.05;4.88;;;15.10;95.10;;;;;;5044695;28;20082;-73
2022/11/18 07:31:50;;;;;;;21.60;4.05;;;15.00;95.50;;;;;;5053011;28;20162;-73
2022/11/18 07:34:16;;;;;;;21.42;4.82;;;15.20;95.10;;;;;;5052832;28;20040;-76
2022/11/18 07:36:42;;;;;;;18.17;4.55;;;15.00;95.30;;;;;;5052032;28;20138;-74
2022/11/18 07:39:08;;;;;;;13.23;3.45;;;15.10;95.20;;;;;;5044447;28;20041;-73
2022/11/18 07:41:34;;;;;;;9.93;2.60;;;15.10;95.00;;;;;;5046021;28;20151;-74
2022/11/18 07:44:01;;;;;;;12.48;2.70;;;15.20;94.80;;;;;;5050309;28;20025;-75
2022/11/18 07:46:32;;;;;;;6.18;2.30;;;15.20;94.70;;;;;;5037836;28;20086;-76
2022/11/18 07:49:00;;;;;;;8.88;2.22;;;15.20;94.70;;;;;;5043488;28;20462;-75
2022/11/18 07:51:28;;;;;;;10.52;2.88;;;15.20;94.60;;;;;;5036173;28;20030;-74
2022/11/18 07:53:54;;;;;;;6.65;2.40;;;15.20;94.50;;;;;;5042813;28;20049;-75
2022/11/18 07:56:20;;;;;;;7.43;3.03;;;15.10;94.80;;;;;;5052274;28;20474;-75
2022/11/18 07:58:46;;;;;;;9.30;2.47;;;15.10;94.80;;;;;;5046877;28;20037;-74
2022/11/18 08:01:17;;;;;;;6.50;2.47;;;15.20;94.80;;;;;;5051194;28;20036;-73
2022/11/18 08:03:43;;;;;;;6.40;2.25;;;15.30;94.90;;;;;;5042640;28;20060;-72
2022/11/18 08:06:11;;;;;;;10.45;2.45;;;15.20;95.10;;;;;;5051787;28;20490;-73
2022/11/18 08:08:37;;;;;;;10.77;2.42;;;15.20;95.10;;;;;;5037882;28;20483;-73
2022/11/18 08:11:07;;;;;;;15.40;3.70;;;15.20;95.10;;;;;;5049052;28;20025;-72
2022/11/18 08:13:33;;;;;;;8.73;2.50;;;15.20;95.20;;;;;;5042098;28;20025;-72
2022/11/18 08:15:59;;;;;;;6.22;2.15;;;15.30;95.10;;;;;;5039901;28;20099;-73
2022/11/18 08:18:26;;;;;;;11.48;2.38;;;15.20;95.00;;;;;;5047010;28;20704;-72
2022/11/18 08:20:52;;;;;;;5.97;2.30;;;15.30;95.20;;;;;;5045702;28;20108;-72
2022/11/18 08:23:17;;;;;;;8.70;2.20;;;15.30;95.10;;;;;;5037973;28;20479;-72
2022/11/18 08:25:44;;;;;;;9.63;2.35;;;15.30;94.80;;;;;;5032595;28;20100;-72
2022/11/18 08:28:11;;;;;;;8.10;1.95;;;15.30;94.90;;;;;;5043623;28;20031;-71
2022/11/18 08:30:37;;;;;;;7.00;2.15;;;15.30;95.10;;;;;;5052194;28;20029;-72
2022/11/18 08:33:03;;;;;;;6.65;2.25;;;15.30;94.90;;;;;;5040601;28;20033;-73
2022/11/18 08:35:31;;;;;;;5.93;2.10;;;15.40;94.80;;;;;;5054479;28;20033;-71
2022/11/18 08:37:57;;;;;;;7.50;2.00;;;15.40;94.70;;;;;;5054610;28;20029;-72
2022/11/18 08:40:23;;;;;;;6.10;1.88;;;15.40;94.90;;;;;;5053117;28;20017;-74
2022/11/18 08:42:49;;;;;;;7.05;2.40;;;15.40;94.70;;;;;;5045120;28;20021;-73
2022/11/18 08:45:14;;;;;;;7.22;2.20;;;15.30;94.90;;;;;;5047866;28;20021;-75
2022/11/18 08:47:40;;;;;;;7.00;1.98;;;15.20;95.10;;;;;;5052163;28;20092;-76
2022/11/18 08:50:08;;;;;;;6.38;1.73;;;15.20;95.20;;;;;;5041954;28;20036;-74
2022/11/18 08:52:34;;;;;;;6.45;1.60;;;15.20;95.10;;;;;;5050485;28;20147;-75
2022/11/18 08:55:00;;;;;;;9.15;2.28;;;15.10;95.30;;;;;;5053117;28;20032;-75
2022/11/18 08:57:26;;;;;;;8.85;2.10;;;15.00;95.60;;;;;;5052221;28;20112;-75
2022/11/18 08:59:52;;;;;;;8.05;2.08;;;14.90;95.70;;;;;;5059162;28;20048;-75
2022/11/18 09:02:20;;;;;;;9.77;2.25;;;14.90;95.70;;;;;;5052166;28;20470;-75
2022/11/18 09:04:46;;;;;;;6.85;2.13;;;14.90;95.70;;;;;;5051220;28;20090;-76
2022/11/18 09:07:12;;;;;;;7.45;1.75;;;14.90;95.90;;;;;;5044740;28;20033;-75
2022/11/18 09:09:37;;;;;;;7.07;2.47;;;14.90;95.90;;;;;;5052127;28;20091;-75
2022/11/18 09:12:04;;;;;;;7.45;2.00;;;14.90;95.70;;;;;;5052410;28;20025;-75
2022/11/18 09:14:29;;;;;;;7.32;2.35;;;15.00;95.80;;;;;;5041158;28;20025;-74
2022/11/18 09:16:55;;;;;;;6.78;2.30;;;14.90;95.90;;;;;;5041306;28;20032;-75
2022/11/18 09:19:21;;;;;;;5.82;1.35;;;14.90;96.00;;;;;;5048074;28;20493;-75
2022/11/18 09:21:46;;;;;;;6.00;1.58;;;14.90;95.90;;;;;;5044463;28;20481;-75
2022/11/18 09:24:12;;;;;;;7.43;2.00;;;14.90;95.90;;;;;;5049437;28;20064;-76
2022/11/18 09:26:37;;;;;;;6.00;1.75;;;15.00;95.90;;;;;;5046709;28;20103;-75
2022/11/18 09:29:03;;;;;;;6.57;1.75;;;14.90;95.90;;;;;;5047101;28;20093;-75
2022/11/18 09:31:29;;;;;;;6.20;2.15;;;14.90;95.90;;;;;;5051310;28;20460;-75
2022/11/18 09:33:55;;;;;;;5.82;1.52;;;15.00;95.90;;;;;;5055147;28;20040;-73
2022/11/18 09:36:23;;;;;;;6.20;2.35;;;14.90;95.90;;;;;;5050549;28;20086;-75
2022/11/18 09:38:49;;;;;;;3.38;1.60;;;15.00;95.90;;;;;;5052317;28;20453;-76
2022/11/18 09:41:37;;;;;;;6.40;1.98;;;15.00;95.90;;;;;;5054751;28;20096;-74
2022/11/18 09:44:32;;;;;;;4.47;1.50;;;15.00;95.80;;;;;;5052689;28;20029;-76
2022/11/18 09:47:23;;;;;;;7.38;1.88;;;15.00;95.90;;;;;;5035853;28;20486;-76
2022/11/18 09:49:49;;;;;;;4.72;1.52;;;15.00;95.80;;;;;;5041072;28;20500;-75
2022/11/18 09:52:15;;;;;;;4.80;1.73;;;15.00;95.80;;;;;;5052315;28;20108;-75
2022/11/18 09:54:40;;;;;;;5.63;1.60;;;15.00;95.80;;;;;;5038589;28;20061;-75
2022/11/18 09:57:32;;;;;;;4.72;1.50;;;15.10;95.80;;;;;;5055023;28;20035;-75
2022/11/18 10:00:00;;;;;;;6.38;1.55;;;15.00;95.90;;;;;;5041558;28;20021;-76
2022/11/18 10:02:42;;;;;;;3.95;1.73;;;15.00;95.90;;;;;;5054998;28;20067;-75
2022/11/18 10:05:20;;;;;;;5.65;1.88;;;15.00;95.80;;;;;;5053302;28;20142;-75
2022/11/18 10:08:01;;;;;;;8.05;2.47;;;15.00;95.80;;;;;;5046984;28;20494;-76
2022/11/18 10:10:50;;;;;;;7.03;2.58;;;15.10;95.70;;;;;;5049991;28;20070;-75
2022/11/18 10:13:27;;;;;;;4.82;2.20;;;15.20;95.00;;;;;;5048351;28;20033;-75
2022/11/18 10:16:12;;;;;;;5.07;2.20;;;15.30;94.70;;;;;;5052742;28;20063;-75
2022/11/18 10:18:59;;;;;;;6.32;3.00;;;15.20;94.60;;;;;;5054131;28;20056;-75
2022/11/18 10:21:30;;;;;;;7.78;3.00;;;15.20;94.70;;;;;;5053404;28;20017;-76
2022/11/18 10:24:12;;;;;;;7.80;3.75;;;15.20;94.60;;;;;;5050652;28;20029;-75
2022/11/18 10:26:39;;;;;;;5.55;3.03;;;15.20;94.70;;;;;;5057307;28;20103;-75
2022/11/18 10:29:08;;;;;;;10.10;3.50;;;15.20;94.80;;;;;;5045887;28;20021;-74
2022/11/18 10:32:05;;;;;;;5.43;2.88;;;15.20;95.00;;;;;;5054917;28;20025;-75
2022/11/18 10:34:33;;;;;;;7.50;2.72;;;15.20;95.20;;;;;;5053848;28;20125;-74
2022/11/18 10:37:06;;;;;;;6.65;2.65;;;15.20;95.20;;;;;;5055273;28;20076;-76
2022/11/18 10:39:32;;;;;;;8.00;2.50;;;15.20;95.10;;;;;;5055466;28;20044;-74
2022/11/18 10:42:05;;;;;;;4.30;2.00;;;15.20;95.20;;;;;;5055563;28;20098;-75
2022/11/18 10:44:39;;;;;;;4.28;1.70;;;15.10;95.30;;;;;;5053498;28;20355;-74
2022/11/18 10:47:23;;;;;;;5.18;2.25;;;15.10;95.50;;;;;;5054240;28;20025;-75
2022/11/18 10:49:53;;;;;;;7.82;1.92;;;15.10;95.70;;;;;;5055827;28;20032;-73
2022/11/18 10:52:20;;;;;;;6.45;2.10;;;15.10;95.50;;;;;;5051748;28;20179;-74
2022/11/18 10:55:23;;;;;;;8.30;2.38;;;15.20;95.40;;;;;;5051011;28;20021;-74
2022/11/18 10:57:52;;;;;;;6.28;2.17;;;15.20;95.60;;;;;;5051202;28;20064;-74
2022/11/18 11:00:38;;;;;;;6.25;2.15;;;15.20;95.40;;;;;;5055346;28;20032;-74
2022/11/18 11:03:28;;;;;;;6.03;2.20;;;15.20;95.50;;;;;;5042418;28;20087;-74
2022/11/18 11:06:29;;;;;;;6.43;2.38;;;15.20;95.60;;;;;;5052698;28;20109;-73
2022/11/18 11:08:58;;;;;;;6.18;2.33;;;15.20;95.70;;;;;;5050065;28;20025;-73
2022/11/18 11:11:31;;;;;;;8.27;3.10;;;15.20;95.60;;;;;;5053329;28;20033;-73
2022/11/18 11:14:05;;;;;;;7.50;3.38;;;15.10;95.80;;;;;;5051399;28;20071;-73
2022/11/18 11:16:35;;;;;;;11.75;4.90;;;15.00;95.90;;;;;;5049359;28;20056;-73
2022/11/18 11:19:03;;;;;;;10.70;5.22;;;15.00;96.20;;;;;;5053573;28;20493;-75
2022/11/18 11:21:29;;;;;;;18.88;11.90;;;14.90;96.10;;;;;;5053481;28;20017;-74
2022/11/18 11:23:55;;;;;;;13.95;8.40;;;14.90;96.20;;;;;;5053995;28;20107;-75
2022/11/18 11:26:54;;;;;;;9.13;5.13;;;14.90;96.30;;;;;;5053586;28;20032;-75
2022/11/18 11:29:53;;;;;;;6.55;3.65;;;14.80;96.40;;;;;;5044282;28;20041;-75
2022/11/18 11:32:18;;;;;;;11.93;3.83;;;14.80;96.50;;;;;;5053951;28;20031;-75
2022/11/18 11:35:23;;;;;;;10.50;5.10;;;14.90;96.40;;;;;;5053868;28;20111;-76
2022/11/18 11:37:59;;;;;;;9.80;4.93;;;14.90;96.70;;;;;;5052912;28;20119;-76
2022/11/18 11:40:38;;;;;;;12.85;8.20;;;14.80;96.80;;;;;;5053552;28;20024;-73
2022/11/18 11:43:21;;;;;;;22.95;14.23;;;14.70;96.90;;;;;;5053651;28;20083;-73
2022/11/18 11:45:56;;;;;;;32.25;19.35;;;14.70;97.10;;;;;;5053505;28;20017;-75
2022/11/18 11:48:29;;;;;;;31.67;16.15;;;14.70;97.10;;;;;;5053548;28;20059;-74
2022/11/18 11:51:02;;;;;;;55.80;25.90;;;14.80;97.10;;;;;;5053099;28;20058;-74
2022/11/18 11:53:51;;;;;;;33.03;15.13;;;14.80;97.10;;;;;;5053627;28;20557;-74
2022/11/18 11:56:24;;;;;;;29.23;13.32;;;14.80;97.20;;;;;;5058239;28;20395;-74
2022/11/18 11:58:58;;;;;;;14.82;5.22;;;14.90;97.20;;;;;;5055218;28;20100;-74
2022/11/18 12:01:33;;;;;;;13.25;3.58;;;14.80;97.30;;;;;;5052561;28;20117;-75
2022/11/18 12:04:15;;;;;;;8.60;3.50;;;14.80;97.50;;;;;;5052764;28;20032;-75
2022/11/18 12:06:44;;;;;;;;;;;14.90;97.50;;;;;;5053604;28;20048;-75
2022/11/18 12:09:25;;;;;;;8.20;4.05;;;14.90;97.50;;;;;;5053226;28;19912;-75
2022/11/18 12:11:58;;;;;;;8.57;3.08;;;14.90;97.50;;;;;;5052852;28;20520;-75
2022/11/18 12:14:36;;;;;;;9.05;3.00;;;14.90;97.60;;;;;;5053183;28;20017;-75
2022/11/18 12:17:20;;;;;;;8.88;3.83;;;14.80;97.60;;;;;;5052967;28;20044;-74
2022/11/18 12:19:45;;;;;;;8.02;3.47;;;14.80;97.90;;;;;;5052774;28;20053;-75
2022/11/18 12:22:11;;;;;;;5.85;3.45;;;14.80;97.70;;;;;;5052754;28;20064;-75
2022/11/18 12:24:43;;;;;;;8.90;3.22;;;14.90;97.70;;;;;;5052674;28;20025;-75
2022/11/18 12:27:08;;;;;;;12.27;3.83;;;14.90;97.80;;;;;;5052865;28;20025;-75
2022/11/18 12:29:42;;;;;;;8.00;3.60;;;14.90;97.80;;;;;;5052961;28;20062;-75
2022/11/18 12:32:28;;;;;;;9.80;4.15;;;14.90;97.90;;;;;;5052745;28;20021;-75
2022/11/18 12:35:20;;;;;;;16.00;8.82;;;14.80;97.90;;;;;;5051613;28;20040;-75
2022/11/18 12:37:52;;;;;;;20.92;13.35;;;14.90;97.70;;;;;;5052243;28;20127;-75
2022/11/18 12:40:31;;;;;;;19.75;10.75;;;14.90;97.70;;;;;;5052487;28;20105;-75
2022/11/18 12:45:42;;;;;;;8.38;3.75;;;14.90;97.70;;;;;;5052826;28;20433;-75
2022/11/18 12:48:22;;;;;;;10.23;3.20;;;14.90;97.60;;;;;;5052285;28;20025;-75
2022/11/18 12:50:52;;;;;;;7.38;3.40;;;14.90;97.70;;;;;;5052784;28;20071;-75
2022/11/18 12:53:50;;;;;;;8.73;3.42;;;15.00;97.50;;;;;;5052536;28;20029;-75
2022/11/18 12:56:16;;;;;;;6.75;3.70;;;14.90;97.60;;;;;;5050800;28;20098;-75
2022/11/18 12:58:46;;;;;;;9.07;3.58;;;14.90;97.60;;;;;;5050957;28;20595;-75
2022/11/18 13:01:14;;;;;;;6.45;3.42;;;14.90;97.60;;;;;;5057831;28;20044;-73
2022/11/18 13:03:40;;;;;;;6.35;3.17;;;14.80;97.70;;;;;;5061051;28;20122;-73
2022/11/18 13:06:23;;;;;;;7.03;3.10;;;14.90;97.80;;;;;;5059874;28;20082;-72
2022/11/18 13:08:51;;;;;;;;;;;15.10;97.50;;;;;;5072484;28;20056;-74
2022/11/18 13:20:34;;;;;;;7.28;3.38;;;15.30;96.70;;;;;;5054807;28;20060;-75
2022/11/18 13:26:01;;;;;;;12.63;2.95;;;15.40;96.70;;;;;;5057555;28;20469;-75
2022/11/18 13:28:44;;;;;;;7.68;3.38;;;15.50;96.70;;;;;;5053236;28;20071;-74